Time;durP1;ratioP1;P1;durP2;ratioP2;P2;SDS_P1;SDS_P2;PMS_P1;PMS_P2;Temp;Humidity;BMP_temperature;BMP_pressure;BME280_temperature;BME280_humidity;BME280_pressure;Samples;Min_cycle;Max_cycle;Signal;HPM_P1;HPM_P2
2023/03/06 00:00:53;;;;;;;20.97;9.00;;;1.50;69.60;;;;;;5007056;28;20521;-57
2023/03/06 00:03:20;;;;;;;16.60;9.10;;;1.50;69.80;;;;;;4998532;28;20435;-59
2023/03/06 00:05:45;;;;;;;17.67;8.77;;;1.50;69.90;;;;;;5007326;28;20447;-57
2023/03/06 00:08:11;;;;;;;19.93;10.07;;;1.50;70.20;;;;;;5006025;28;20464;-58
2023/03/06 00:10:37;;;;;;;15.53;8.50;;;1.50;70.00;;;;;;5002169;28;20181;-58
2023/03/06 00:13:11;;;;;;;19.83;9.23;;;1.50;69.70;;;;;;5004999;28;20214;-58
2023/03/06 00:15:36;;;;;;;17.40;9.40;;;1.50;69.50;;;;;;5020195;28;20519;-58
2023/03/06 00:18:04;;;;;;;18.10;9.03;;;1.50;69.40;;;;;;5006783;28;20868;-58
2023/03/06 00:20:29;;;;;;;21.77;9.90;;;1.50;69.80;;;;;;5005038;28;20277;-57
2023/03/06 00:22:56;;;;;;;17.60;8.90;;;1.40;70.10;;;;;;5008287;28;20510;-58
2023/03/06 00:25:22;;;;;;;15.73;9.10;;;1.50;70.40;;;;;;5002466;28;20185;-57
2023/03/06 00:27:48;;;;;;;16.90;9.27;;;1.50;70.30;;;;;;4998884;28;20459;-58
2023/03/06 00:30:19;;;;;;;21.03;10.50;;;1.50;70.30;;;;;;5007388;28;20171;-58
2023/03/06 00:32:45;;;;;;;24.70;9.63;;;1.40;70.30;;;;;;5005004;28;20459;-56
2023/03/06 00:35:11;;;;;;;18.63;9.03;;;1.50;70.60;;;;;;5006781;28;20463;-58
2023/03/06 00:37:37;;;;;;;16.13;8.80;;;1.50;70.60;;;;;;5004975;28;20203;-58
2023/03/06 00:40:14;;;;;;;20.50;9.70;;;1.50;70.90;;;;;;5005775;28;20432;-58
2023/03/06 00:42:39;;;;;;;19.73;9.13;;;1.50;70.80;;;;;;5003421;28;20438;-58
2023/03/06 00:45:06;;;;;;;14.57;8.73;;;1.50;70.90;;;;;;5004888;28;20428;-58
2023/03/06 00:47:31;;;;;;;16.07;8.37;;;1.50;70.90;;;;;;5004794;28;20211;-58
2023/03/06 00:49:57;;;;;;;17.67;8.80;;;1.50;71.10;;;;;;5005104;28;20522;-58
2023/03/06 00:52:23;;;;;;;15.77;7.90;;;1.50;70.80;;;;;;5006575;28;20174;-58
2023/03/06 00:54:49;;;;;;;18.20;8.80;;;1.50;70.20;;;;;;5006762;28;20237;-58
2023/03/06 00:57:14;;;;;;;21.60;9.13;;;1.40;69.80;;;;;;5002610;28;20475;-60
2023/03/06 00:59:40;;;;;;;18.23;8.37;;;1.40;70.00;;;;;;5004857;28;20176;-59
2023/03/06 01:02:06;;;;;;;17.63;8.70;;;1.40;70.40;;;;;;5002832;28;20180;-58
2023/03/06 01:04:32;;;;;;;19.00;8.60;;;1.30;70.70;;;;;;5005259;28;20771;-58
2023/03/06 01:06:57;;;;;;;15.50;9.00;;;1.30;71.10;;;;;;5004608;28;20451;-58
2023/03/06 01:09:23;;;;;;;18.60;8.30;;;1.30;71.40;;;;;;5005044;28;20185;-58
2023/03/06 01:11:49;;;;;;;15.93;9.07;;;1.30;71.70;;;;;;5010229;28;20195;-59
2023/03/06 01:14:14;;;;;;;17.80;8.80;;;1.30;71.90;;;;;;5010669;28;20964;-58
2023/03/06 01:16:40;;;;;;;18.33;8.80;;;1.30;72.10;;;;;;5003534;28;20284;-58
2023/03/06 01:19:06;;;;;;;20.33;8.73;;;1.30;72.00;;;;;;5009645;28;20667;-58
2023/03/06 01:21:31;;;;;;;15.87;9.47;;;1.30;72.00;;;;;;5008796;28;20179;-59
2023/03/06 01:23:57;;;;;;;14.90;8.00;;;1.30;72.00;;;;;;5007867;28;20183;-58
2023/03/06 01:26:22;;;;;;;23.10;10.17;;;1.30;71.50;;;;;;5007855;28;20745;-57
2023/03/06 01:28:48;;;;;;;13.70;7.60;;;1.20;71.60;;;;;;5011232;28;20199;-59
2023/03/06 01:31:14;;;;;;;17.40;9.30;;;1.30;72.10;;;;;;5008254;28;20237;-58
2023/03/06 01:33:39;;;;;;;14.87;7.93;;;1.20;72.70;;;;;;5007690;28;20179;-58
2023/03/06 01:36:08;;;;;;;19.90;9.90;;;1.30;73.00;;;;;;5005270;28;20202;-58
2023/03/06 01:38:34;;;;;;;16.60;9.27;;;1.30;72.80;;;;;;5008001;28;20270;-58
2023/03/06 01:41:02;;;;;;;16.33;8.70;;;1.30;72.50;;;;;;5005630;28;20438;-59
2023/03/06 01:43:32;;;;;;;21.97;9.70;;;1.30;72.80;;;;;;5011300;28;20488;-58
2023/03/06 01:46:19;;;;;;;22.80;10.30;;;1.30;73.80;;;;;;5008767;28;20465;-58
2023/03/06 01:48:47;;;;;;;17.07;9.47;;;1.30;74.00;;;;;;5008230;28;20491;-59
2023/03/06 01:51:13;;;;;;;25.73;13.10;;;1.30;74.20;;;;;;5004077;28;21201;-57
2023/03/06 01:53:42;;;;;;;20.13;10.27;;;1.30;74.00;;;;;;5000349;28;20423;-57
2023/03/06 01:56:09;;;;;;;20.50;11.30;;;1.30;73.30;;;;;;5008723;28;20446;-58
2023/03/06 01:58:35;;;;;;;22.47;10.90;;;1.30;73.10;;;;;;5004848;28;20454;-57
2023/03/06 02:01:01;;;;;;;21.90;10.87;;;1.30;72.60;;;;;;5004838;28;20441;-59
2023/03/06 02:03:27;;;;;;;17.40;9.67;;;1.30;72.80;;;;;;5013013;28;20472;-57
2023/03/06 02:05:54;;;;;;;20.47;9.67;;;1.40;72.20;;;;;;5007604;28;20258;-58
2023/03/06 02:08:22;;;;;;;21.90;10.80;;;1.30;72.00;;;;;;5006684;28;20458;-58
2023/03/06 02:11:07;;;;;;;21.37;9.87;;;1.40;72.40;;;;;;5006069;28;20432;-58
2023/03/06 02:13:34;;;;;;;20.00;9.23;;;1.40;73.00;;;;;;5018806;28;21042;-57
2023/03/06 02:16:00;;;;;;;17.23;9.10;;;1.40;73.00;;;;;;5006477;28;20482;-58
2023/03/06 02:18:26;;;;;;;19.20;8.90;;;1.40;72.20;;;;;;5003402;28;20462;-58
2023/03/06 02:20:56;;;;;;;19.77;9.60;;;1.40;72.00;;;;;;5003370;28;20435;-58
2023/03/06 02:23:43;;;;;;;21.00;10.40;;;1.40;72.00;;;;;;5006521;28;20530;-57
2023/03/06 02:26:09;;;;;;;21.03;10.57;;;1.40;72.20;;;;;;5000513;28;20844;-57
2023/03/06 02:28:35;;;;;;;18.00;8.70;;;1.40;71.90;;;;;;5009418;28;20459;-57
2023/03/06 02:31:01;;;;;;;20.97;8.70;;;1.40;71.10;;;;;;5008657;28;20433;-59
2023/03/06 02:33:28;;;;;;;23.10;8.67;;;1.40;71.40;;;;;;5013002;28;20171;-58
2023/03/06 02:35:53;;;;;;;16.90;8.90;;;1.50;72.30;;;;;;5009413;28;20204;-57
2023/03/06 02:38:23;;;;;;;22.20;8.97;;;1.40;73.00;;;;;;5010039;28;20810;-58
2023/03/06 02:40:51;;;;;;;14.00;8.00;;;1.40;73.80;;;;;;5003963;28;20184;-57
2023/03/06 02:43:22;;;;;;;14.60;8.90;;;1.40;74.20;;;;;;5004870;28;21022;-58
2023/03/06 02:45:50;;;;;;;16.20;7.87;;;1.30;74.00;;;;;;5007928;28;20431;-58
2023/03/06 02:48:17;;;;;;;14.90;8.60;;;1.30;73.90;;;;;;5007534;28;20470;-57
2023/03/06 02:50:44;;;;;;;14.00;8.50;;;1.30;73.60;;;;;;5003957;28;20528;-58
2023/03/06 02:53:12;;;;;;;19.23;8.87;;;1.30;73.60;;;;;;5006221;28;20437;-57
2023/03/06 02:55:38;;;;;;;17.67;9.43;;;1.20;73.30;;;;;;5006185;28;20421;-57
2023/03/06 02:58:05;;;;;;;18.00;8.30;;;1.20;73.70;;;;;;5006648;28;20433;-57
2023/03/06 03:00:31;;;;;;;17.30;8.43;;;1.20;74.50;;;;;;5002095;28;20444;-57
2023/03/06 03:02:57;;;;;;;19.80;9.30;;;1.20;74.90;;;;;;5007759;28;20441;-58
2023/03/06 03:05:22;;;;;;;18.40;9.60;;;1.20;74.90;;;;;;5005018;28;20513;-57
2023/03/06 03:07:48;;;;;;;16.73;9.03;;;1.20;75.50;;;;;;5002309;28;20204;-58
2023/03/06 03:10:14;;;;;;;19.53;10.27;;;1.20;75.90;;;;;;5006053;28;20185;-58
2023/03/06 03:12:40;;;;;;;15.57;9.20;;;1.20;76.30;;;;;;5006117;28;20267;-58
2023/03/06 03:15:06;;;;;;;19.63;10.43;;;1.20;76.10;;;;;;5004262;28;20175;-57
2023/03/06 03:17:36;;;;;;;18.97;9.97;;;1.20;76.00;;;;;;5009234;28;20454;-57
2023/03/06 03:20:03;;;;;;;20.23;9.73;;;1.20;77.30;;;;;;5007771;28;20415;-58
2023/03/06 03:22:29;;;;;;;21.30;8.93;;;1.20;76.90;;;;;;5006411;28;20453;-58
2023/03/06 03:24:54;;;;;;;21.00;9.43;;;1.30;76.60;;;;;;5001265;28;20427;-58
2023/03/06 03:27:20;;;;;;;20.60;10.60;;;1.30;76.80;;;;;;5004202;28;20208;-59
2023/03/06 03:29:45;;;;;;;27.20;10.90;;;1.30;77.40;;;;;;5006508;28;20173;-57
2023/03/06 03:32:11;;;;;;;17.37;8.73;;;1.30;76.80;;;;;;5001970;28;20648;-58
2023/03/06 03:34:36;;;;;;;18.97;9.10;;;1.30;76.30;;;;;;5007901;28;20187;-58
2023/03/06 03:37:02;;;;;;;19.43;9.00;;;1.30;74.20;;;;;;5005025;28;20197;-59
2023/03/06 03:39:28;;;;;;;17.60;8.90;;;1.30;73.70;;;;;;5005382;28;20203;-58
2023/03/06 03:41:54;;;;;;;23.73;9.10;;;1.30;73.60;;;;;;5004182;28;20511;-57
2023/03/06 03:44:19;;;;;;;19.20;8.60;;;1.30;73.00;;;;;;5008279;28;20401;-58
2023/03/06 03:46:45;;;;;;;18.03;9.17;;;1.30;72.80;;;;;;5005564;28;20665;-58
2023/03/06 03:49:10;;;;;;;19.13;8.30;;;1.30;72.70;;;;;;5006169;28;20214;-58
2023/03/06 03:51:36;;;;;;;17.93;9.03;;;1.30;72.40;;;;;;5004522;28;20184;-58
2023/03/06 03:54:04;;;;;;;21.67;9.30;;;1.30;72.30;;;;;;5005263;28;21376;-59
2023/03/06 03:56:30;;;;;;;19.20;8.10;;;1.30;72.20;;;;;;5005274;28;20200;-59
2023/03/06 03:58:56;;;;;;;16.50;8.93;;;1.30;72.40;;;;;;5005295;28;20468;-58
2023/03/06 04:01:21;;;;;;;18.33;9.27;;;1.30;72.80;;;;;;5006118;28;20182;-58
2023/03/06 04:03:47;;;;;;;19.83;9.30;;;1.30;72.60;;;;;;5004194;28;20214;-60
2023/03/06 04:06:13;;;;;;;17.17;8.43;;;1.30;72.70;;;;;;5005812;28;20299;-58
2023/03/06 04:08:39;;;;;;;18.43;9.47;;;1.30;72.80;;;;;;5004646;28;20219;-58
2023/03/06 04:11:05;;;;;;;13.17;8.47;;;1.30;72.50;;;;;;5007135;28;20426;-58
2023/03/06 04:13:31;;;;;;;15.90;8.67;;;1.30;72.70;;;;;;5005804;28;20199;-60
2023/03/06 04:15:58;;;;;;;19.03;9.30;;;1.30;72.40;;;;;;5006680;28;20204;-58
2023/03/06 04:18:24;;;;;;;18.53;9.23;;;1.30;72.70;;;;;;5002997;28;20427;-58
2023/03/06 04:20:50;;;;;;;12.33;7.43;;;1.30;72.90;;;;;;5003650;28;20492;-59
2023/03/06 04:23:17;;;;;;;22.77;9.10;;;1.30;73.20;;;;;;5000906;28;20437;-58
2023/03/06 04:25:42;;;;;;;17.37;9.13;;;1.20;73.30;;;;;;5002695;28;20450;-60
2023/03/06 04:28:08;;;;;;;22.97;9.20;;;1.20;73.70;;;;;;5004833;28;20467;-58
2023/03/06 04:30:34;;;;;;;18.70;9.87;;;1.20;74.20;;;;;;5002936;28;20551;-58
2023/03/06 04:33:00;;;;;;;19.37;8.97;;;1.20;74.70;;;;;;5001984;28;20419;-58
2023/03/06 04:35:25;;;;;;;20.63;9.50;;;1.20;74.90;;;;;;5005109;28;20164;-58
2023/03/06 04:37:51;;;;;;;23.67;10.13;;;1.20;74.70;;;;;;5010866;28;20215;-58
2023/03/06 04:40:20;;;;;;;19.20;9.97;;;1.20;74.90;;;;;;5004746;28;20444;-59
2023/03/06 04:42:46;;;;;;;19.50;10.20;;;1.20;74.90;;;;;;5006516;28;20248;-58
2023/03/06 04:45:13;;;;;;;20.13;10.10;;;1.20;74.90;;;;;;5003629;28;20525;-58
2023/03/06 04:47:39;;;;;;;17.43;8.70;;;1.20;74.50;;;;;;4993389;28;20458;-58
2023/03/06 04:50:05;;;;;;;17.83;9.10;;;1.10;73.20;;;;;;4996233;28;21020;-57
2023/03/06 04:52:31;;;;;;;22.47;10.57;;;1.20;73.50;;;;;;5005135;28;20438;-58
2023/03/06 04:54:56;;;;;;;21.83;8.90;;;1.10;72.80;;;;;;5008278;28;20438;-58
2023/03/06 04:57:22;;;;;;;17.93;9.27;;;1.20;72.80;;;;;;5007501;28;20230;-59
2023/03/06 04:59:49;;;;;;;17.93;8.50;;;1.20;72.50;;;;;;5003922;28;20694;-59
2023/03/06 05:02:15;;;;;;;18.23;8.90;;;1.20;72.40;;;;;;5002727;28;21375;-58
2023/03/06 05:04:41;;;;;;;18.53;8.60;;;1.20;72.20;;;;;;5008542;28;20435;-58
2023/03/06 05:07:07;;;;;;;14.70;7.90;;;1.20;72.00;;;;;;5007642;28;20469;-58
2023/03/06 05:09:33;;;;;;;19.57;9.07;;;1.30;71.80;;;;;;5008559;28;20255;-58
2023/03/06 05:11:59;;;;;;;20.20;8.90;;;1.30;71.20;;;;;;4986706;28;20266;-59
2023/03/06 05:14:24;;;;;;;16.80;9.10;;;1.30;70.70;;;;;;4998807;28;20606;-57
2023/03/06 05:16:50;;;;;;;19.00;8.00;;;1.30;70.50;;;;;;5005941;28;20205;-57
2023/03/06 05:19:15;;;;;;;20.60;9.47;;;1.30;70.30;;;;;;5002274;28;20171;-58
2023/03/06 05:21:41;;;;;;;20.47;9.23;;;1.30;70.10;;;;;;4998388;28;20189;-57
2023/03/06 05:24:07;;;;;;;21.97;9.73;;;1.30;69.80;;;;;;4999004;28;20187;-60
2023/03/06 05:26:33;;;;;;;22.37;9.53;;;1.30;69.70;;;;;;5001691;28;20261;-60
2023/03/06 05:28:59;;;;;;;21.73;9.20;;;1.30;69.40;;;;;;5007709;28;20230;-59
2023/03/06 05:31:24;;;;;;;16.40;9.33;;;1.30;69.40;;;;;;5003862;28;20457;-58
2023/03/06 05:33:50;;;;;;;22.90;10.23;;;1.30;69.30;;;;;;5007094;28;20183;-58
2023/03/06 05:36:15;;;;;;;19.57;9.17;;;1.30;69.10;;;;;;5008978;28;20195;-58
2023/03/06 05:38:41;;;;;;;21.43;9.70;;;1.40;69.00;;;;;;4993836;28;20835;-58
2023/03/06 05:41:10;;;;;;;18.93;9.30;;;1.30;68.80;;;;;;5001455;28;20180;-56
2023/03/06 05:43:36;;;;;;;17.77;9.40;;;1.30;68.70;;;;;;5006194;28;20172;-57
2023/03/06 05:46:04;;;;;;;17.47;9.40;;;1.30;68.70;;;;;;4999394;28;20454;-57
2023/03/06 05:48:30;;;;;;;20.90;9.43;;;1.30;68.70;;;;;;4998520;28;20224;-58
2023/03/06 05:50:57;;;;;;;20.23;8.33;;;1.30;68.70;;;;;;5001041;28;20455;-57
2023/03/06 05:53:23;;;;;;;22.87;10.43;;;1.30;68.90;;;;;;5006218;28;20190;-56
2023/03/06 05:56:00;;;;;;;20.73;9.90;;;1.40;69.10;;;;;;5005341;28;20454;-57
2023/03/06 05:58:27;;;;;;;17.70;8.97;;;1.40;68.90;;;;;;5005038;28;20523;-57
2023/03/06 06:00:53;;;;;;;19.07;8.87;;;1.30;68.70;;;;;;5005791;28;20789;-58
2023/03/06 06:03:19;;;;;;;20.83;8.90;;;1.30;68.80;;;;;;5009840;28;20428;-57
2023/03/06 06:05:45;;;;;;;23.27;9.63;;;1.30;68.90;;;;;;5005115;28;20227;-59
2023/03/06 06:08:11;;;;;;;19.17;9.00;;;1.30;69.00;;;;;;5004206;28;20489;-57
2023/03/06 06:10:37;;;;;;;18.73;8.50;;;1.40;68.90;;;;;;5006326;28;20435;-57
2023/03/06 06:13:03;;;;;;;20.40;9.37;;;1.30;68.90;;;;;;5001411;28;20717;-57
2023/03/06 06:15:28;;;;;;;21.47;8.87;;;1.30;69.10;;;;;;5006915;28;20564;-57
2023/03/06 06:17:55;;;;;;;17.40;9.27;;;1.30;69.50;;;;;;5003638;28;20510;-57
2023/03/06 06:20:21;;;;;;;19.20;9.27;;;1.40;69.50;;;;;;5008652;28;20883;-56
2023/03/06 06:22:46;;;;;;;26.33;11.17;;;1.40;69.20;;;;;;5009598;28;20422;-57
2023/03/06 06:25:12;;;;;;;19.00;9.50;;;1.40;68.80;;;;;;5011638;28;20782;-57
2023/03/06 06:27:38;;;;;;;19.37;10.17;;;1.40;68.40;;;;;;5006961;28;20211;-57
2023/03/06 06:30:05;;;;;;;21.60;9.50;;;1.40;68.30;;;;;;5010384;28;20168;-56
2023/03/06 06:32:30;;;;;;;24.00;10.60;;;1.40;68.20;;;;;;5011601;28;20326;-57
2023/03/06 06:34:56;;;;;;;23.90;11.00;;;1.40;68.10;;;;;;5024938;28;21027;-56
2023/03/06 06:37:23;;;;;;;19.53;10.77;;;1.40;68.20;;;;;;5006695;28;20203;-57
2023/03/06 06:39:49;;;;;;;23.13;10.03;;;1.40;69.20;;;;;;5004189;28;20171;-55
2023/03/06 06:42:15;;;;;;;26.40;9.70;;;1.50;70.70;;;;;;5006602;28;20430;-56
2023/03/06 06:44:41;;;;;;;18.47;9.53;;;1.40;70.50;;;;;;5010189;28;20292;-57
2023/03/06 06:47:07;;;;;;;22.07;10.53;;;1.50;70.00;;;;;;5005445;28;21207;-57
2023/03/06 06:49:33;;;;;;;24.40;10.30;;;1.50;69.50;;;;;;4999951;28;20633;-58
2023/03/06 06:51:58;;;;;;;20.40;9.27;;;1.50;68.60;;;;;;5012215;28;20432;-58
2023/03/06 06:54:24;;;;;;;23.03;10.57;;;1.50;68.70;;;;;;5011579;28;20425;-58
2023/03/06 06:56:50;;;;;;;18.67;10.00;;;1.50;69.10;;;;;;5008038;28;20243;-58
2023/03/06 06:59:16;;;;;;;17.80;9.97;;;1.50;69.00;;;;;;5008767;28;21003;-58
2023/03/06 07:01:41;;;;;;;24.13;9.17;;;1.50;69.00;;;;;;5004852;28;20725;-57
2023/03/06 07:04:08;;;;;;;19.80;9.00;;;1.50;68.90;;;;;;5010551;28;20177;-58
2023/03/06 07:06:34;;;;;;;19.77;9.30;;;1.50;68.80;;;;;;5009400;28;20200;-57
2023/03/06 07:09:00;;;;;;;33.97;10.87;;;1.50;68.70;;;;;;5003048;28;20520;-57
2023/03/06 07:11:25;;;;;;;42.13;11.67;;;1.50;68.50;;;;;;5010121;28;20262;-58
2023/03/06 07:13:51;;;;;;;48.80;14.03;;;1.60;68.50;;;;;;5004151;28;20275;-58
2023/03/06 07:16:17;;;;;;;29.73;11.00;;;1.60;68.40;;;;;;5003928;28;20757;-57
2023/03/06 07:18:43;;;;;;;26.53;9.57;;;1.60;68.20;;;;;;5006556;28;20602;-57
2023/03/06 07:21:08;;;;;;;18.17;10.00;;;1.60;68.10;;;;;;5007954;28;20173;-58
2023/03/06 07:23:34;;;;;;;22.80;9.63;;;1.60;67.90;;;;;;5009175;28;20473;-58
2023/03/06 07:26:00;;;;;;;39.10;11.07;;;1.60;67.80;;;;;;4999905;28;20577;-58
2023/03/06 07:28:26;;;;;;;35.27;11.00;;;1.70;68.00;;;;;;5009039;28;20227;-57
2023/03/06 07:30:53;;;;;;;21.70;11.47;;;1.70;68.00;;;;;;5001365;28;20442;-59
2023/03/06 07:33:19;;;;;;;22.10;10.17;;;1.70;67.90;;;;;;4996744;28;20422;-57
2023/03/06 07:35:45;;;;;;;28.97;10.33;;;1.70;67.50;;;;;;5005352;28;20828;-57
2023/03/06 07:38:10;;;;;;;96.00;14.90;;;1.70;67.70;;;;;;5007938;28;20178;-57
2023/03/06 07:40:37;;;;;;;96.60;15.70;;;1.70;67.70;;;;;;5008945;28;20612;-57
2023/03/06 07:43:04;;;;;;;67.50;14.50;;;1.80;67.70;;;;;;5015479;28;20232;-56
2023/03/06 07:45:30;;;;;;;39.63;11.90;;;1.80;67.60;;;;;;5006465;28;20431;-57
2023/03/06 07:47:55;;;;;;;30.13;11.83;;;1.80;67.70;;;;;;5002466;28;20461;-57
2023/03/06 07:50:21;;;;;;;24.77;12.10;;;1.90;67.70;;;;;;5009000;28;20703;-57
2023/03/06 07:52:48;;;;;;;38.40;11.97;;;1.90;67.40;;;;;;5004436;28;20181;-58
2023/03/06 07:55:14;;;;;;;17.93;9.60;;;1.90;67.20;;;;;;5004884;28;20181;-59
2023/03/06 07:57:40;;;;;;;22.20;10.47;;;1.90;67.10;;;;;;5009260;28;20444;-57
2023/03/06 08:00:09;;;;;;;20.63;9.87;;;1.90;66.10;;;;;;5007931;28;20187;-58
2023/03/06 08:02:35;;;;;;;20.10;10.00;;;2.00;65.40;;;;;;5004299;28;20442;-57
2023/03/06 08:05:00;;;;;;;21.83;9.97;;;2.00;64.70;;;;;;5004664;28;20430;-58
2023/03/06 08:07:28;;;;;;;20.70;9.23;;;2.00;64.70;;;;;;5009161;28;20196;-58
2023/03/06 08:09:54;;;;;;;19.57;9.07;;;2.00;64.60;;;;;;5007939;28;20176;-58
2023/03/06 08:12:20;;;;;;;27.40;11.53;;;2.00;64.50;;;;;;5002001;28;20432;-58
2023/03/06 08:14:45;;;;;;;22.23;10.13;;;2.00;64.10;;;;;;5014217;28;20255;-58
2023/03/06 08:17:11;;;;;;;20.53;10.50;;;2.10;64.80;;;;;;5008745;28;20184;-57
2023/03/06 08:19:36;;;;;;;28.67;10.90;;;2.10;64.10;;;;;;5010245;28;20587;-58
2023/03/06 08:22:04;;;;;;;25.17;10.97;;;2.10;64.00;;;;;;4999694;28;20178;-59
2023/03/06 08:24:30;;;;;;;21.77;10.40;;;2.20;63.90;;;;;;5007706;28;20198;-58
2023/03/06 08:26:56;;;;;;;23.70;10.83;;;2.20;63.30;;;;;;5008501;28;20439;-58
2023/03/06 08:29:22;;;;;;;18.77;9.77;;;2.20;63.40;;;;;;5005203;28;20999;-58
2023/03/06 08:31:47;;;;;;;23.77;10.03;;;2.30;63.40;;;;;;5002879;28;20180;-57
2023/03/06 08:34:17;;;;;;;20.80;10.27;;;2.20;62.90;;;;;;5001115;28;20165;-58
2023/03/06 08:36:42;;;;;;;21.20;9.80;;;2.20;62.70;;;;;;5002341;28;20205;-57
2023/03/06 08:39:09;;;;;;;22.23;11.50;;;2.20;62.80;;;;;;5001833;28;20423;-58
2023/03/06 08:41:35;;;;;;;30.43;12.13;;;2.20;62.60;;;;;;4997960;28;20192;-57
2023/03/06 08:44:01;;;;;;;27.10;10.10;;;2.20;62.40;;;;;;5002568;28;20463;-58
2023/03/06 08:46:28;;;;;;;24.50;11.00;;;2.20;62.30;;;;;;4998542;28;20460;-58
2023/03/06 08:48:54;;;;;;;20.57;10.90;;;2.20;62.80;;;;;;5000869;28;20455;-57
2023/03/06 08:51:20;;;;;;;23.83;10.50;;;2.20;63.00;;;;;;5001863;28;20521;-57
2023/03/06 08:53:47;;;;;;;23.17;11.43;;;2.20;62.80;;;;;;4996520;28;20482;-58
2023/03/06 08:56:17;;;;;;;23.63;11.10;;;2.30;62.60;;;;;;5002493;28;20475;-58
2023/03/06 08:58:43;;;;;;;25.77;10.80;;;2.30;62.60;;;;;;5000504;28;20431;-56
2023/03/06 09:01:14;;;;;;;23.03;11.50;;;2.30;62.40;;;;;;4994300;28;20947;-57
2023/03/06 09:03:40;;;;;;;30.70;12.23;;;2.30;62.30;;;;;;5002530;28;20442;-57
2023/03/06 09:06:05;;;;;;;20.20;10.43;;;2.30;62.40;;;;;;4997632;28;20467;-57
2023/03/06 09:08:31;;;;;;;23.83;11.23;;;2.40;62.60;;;;;;4997937;28;20200;-57
2023/03/06 09:10:56;;;;;;;22.20;10.90;;;2.40;62.10;;;;;;4998471;28;20176;-57
2023/03/06 09:13:22;;;;;;;22.63;11.80;;;2.40;62.00;;;;;;4999877;28;20717;-59
2023/03/06 09:15:48;;;;;;;26.90;11.37;;;2.50;61.90;;;;;;4999079;28;20206;-56
2023/03/06 09:18:13;;;;;;;24.67;12.13;;;2.50;61.80;;;;;;4999270;28;20613;-58
2023/03/06 09:20:39;;;;;;;20.30;11.17;;;2.50;61.80;;;;;;5000821;28;20188;-57
2023/03/06 09:23:04;;;;;;;22.83;10.80;;;2.50;61.90;;;;;;5004673;28;20186;-60
2023/03/06 09:25:30;;;;;;;26.57;11.30;;;2.50;62.00;;;;;;4997881;28;20210;-56
2023/03/06 09:27:55;;;;;;;22.33;12.43;;;2.60;62.20;;;;;;4995687;28;20258;-57
2023/03/06 09:30:21;;;;;;;26.03;12.87;;;2.60;62.10;;;;;;5005479;28;20175;-57
2023/03/06 09:32:47;;;;;;;23.80;10.97;;;2.60;62.00;;;;;;4998856;28;20218;-58
2023/03/06 09:35:13;;;;;;;21.87;11.07;;;2.60;62.30;;;;;;5004106;28;20175;-57
2023/03/06 09:37:40;;;;;;;23.93;11.00;;;2.60;62.30;;;;;;5005242;28;20408;-58
2023/03/06 09:40:06;;;;;;;24.30;11.33;;;2.60;62.60;;;;;;5005880;28;20435;-58
2023/03/06 09:42:32;;;;;;;24.20;11.13;;;2.50;62.70;;;;;;4999510;28;20518;-58
2023/03/06 09:45:01;;;;;;;23.67;10.80;;;2.50;63.00;;;;;;5000276;28;20427;-58
2023/03/06 09:47:50;;;;;;;21.90;10.27;;;2.50;63.20;;;;;;5006175;28;20454;-58
2023/03/06 09:50:34;;;;;;;28.07;11.63;;;2.50;63.40;;;;;;4998478;28;20431;-60
2023/03/06 09:53:48;;;;;;;26.37;11.30;;;2.50;63.90;;;;;;5002776;28;20428;-57
2023/03/06 09:56:29;;;;;;;28.90;11.53;;;2.50;64.20;;;;;;4999663;28;20447;-58
2023/03/06 09:59:03;;;;;;;22.40;11.43;;;2.50;64.50;;;;;;5000308;28;20444;-57
2023/03/06 10:01:33;;;;;;;33.33;11.37;;;2.40;64.70;;;;;;4997218;28;20950;-58
2023/03/06 10:04:10;;;;;;;24.90;10.53;;;2.40;65.00;;;;;;5002943;28;20482;-58
2023/03/06 10:06:44;;;;;;;28.37;11.67;;;2.40;65.10;;;;;;5003081;28;20979;-58
2023/03/06 10:09:15;;;;;;;24.67;11.80;;;2.50;65.50;;;;;;4999017;28;20477;-57
2023/03/06 10:11:57;;;;;;;29.53;12.60;;;2.50;65.40;;;;;;5004117;28;20423;-58
2023/03/06 10:14:36;;;;;;;27.23;11.90;;;2.50;65.50;;;;;;5004823;28;20438;-57
2023/03/06 10:17:03;;;;;;;26.07;11.47;;;2.40;65.40;;;;;;5002485;28;20545;-58
2023/03/06 10:19:33;;;;;;;24.33;11.40;;;2.40;65.60;;;;;;5004874;28;20822;-58
2023/03/06 10:22:02;;;;;;;22.60;11.57;;;2.40;65.90;;;;;;4998697;28;20436;-58
2023/03/06 10:24:55;;;;;;;23.80;12.57;;;2.30;66.40;;;;;;5002774;28;20446;-57
2023/03/06 10:27:32;;;;;;;25.37;12.40;;;2.40;67.00;;;;;;5002763;28;20444;-59
2023/03/06 10:30:46;;;;;;;25.67;12.63;;;2.50;67.30;;;;;;5002125;28;20430;-58
2023/03/06 10:33:45;;;;;;;28.97;12.60;;;2.60;67.40;;;;;;4987580;28;20459;-59
2023/03/06 10:36:14;;;;;;;20.80;10.43;;;2.70;67.30;;;;;;5002399;28;20451;-58
2023/03/06 10:38:41;;;;;;;26.17;11.80;;;2.80;66.70;;;;;;5000929;28;20435;-58
2023/03/06 10:41:12;;;;;;;22.80;11.20;;;2.90;66.10;;;;;;4999244;28;20435;-59
2023/03/06 10:43:43;;;;;;;20.97;10.67;;;2.90;65.50;;;;;;4999407;28;20485;-58
2023/03/06 10:46:11;;;;;;;23.83;11.87;;;2.90;65.30;;;;;;5001255;28;20463;-58
2023/03/06 10:48:39;;;;;;;23.57;11.50;;;2.80;64.50;;;;;;5003368;28;20463;-59
2023/03/06 10:51:19;;;;;;;25.53;13.60;;;2.80;64.70;;;;;;4999018;28;20442;-57
2023/03/06 10:53:56;;;;;;;20.10;11.80;;;2.80;64.80;;;;;;4999273;28;20437;-56
2023/03/06 10:56:34;;;;;;;23.83;12.57;;;2.90;65.30;;;;;;4996307;28;20454;-58
2023/03/06 10:59:21;;;;;;;19.07;10.30;;;3.00;64.40;;;;;;5002955;28;20431;-58
2023/03/06 11:01:56;;;;;;;25.87;11.87;;;3.00;63.10;;;;;;4998209;28;20430;-58
2023/03/06 11:04:35;;;;;;;24.80;11.30;;;3.10;62.60;;;;;;4999372;28;20466;-58
2023/03/06 11:07:15;;;;;;;21.80;12.03;;;3.10;61.80;;;;;;4999551;28;20450;-57
2023/03/06 11:09:46;;;;;;;25.80;12.57;;;3.20;62.40;;;;;;4999572;28;20432;-58
2023/03/06 11:12:31;;;;;;;28.93;12.27;;;3.30;62.10;;;;;;4996459;28;20427;-57
2023/03/06 11:15:05;;;;;;;30.00;12.40;;;3.40;62.00;;;;;;5001641;28;20447;-58
2023/03/06 11:17:32;;;;;;;23.83;11.20;;;3.40;61.20;;;;;;5015290;28;20547;-57
2023/03/06 11:20:15;;;;;;;23.53;11.20;;;3.50;60.90;;;;;;5001108;28;20427;-58
2023/03/06 11:22:45;;;;;;;22.80;11.63;;;3.60;60.60;;;;;;5002163;28;20447;-58
2023/03/06 11:25:15;;;;;;;25.53;12.00;;;3.70;60.30;;;;;;4999475;28;20450;-57
2023/03/06 11:27:43;;;;;;;25.40;11.87;;;3.70;59.60;;;;;;4984025;28;20513;-59
2023/03/06 11:30:22;;;;;;;20.80;11.67;;;3.80;59.60;;;;;;4997173;28;20427;-57
2023/03/06 11:33:17;;;;;;;19.00;10.43;;;3.80;59.00;;;;;;5006874;28;20435;-59
2023/03/06 11:35:53;;;;;;;25.83;11.27;;;4.00;58.10;;;;;;4993812;28;20439;-57
2023/03/06 11:38:37;;;;;;;22.60;9.57;;;4.50;57.30;;;;;;5006343;28;20530;-55
2023/03/06 11:41:14;;;;;;;19.83;9.50;;;5.20;55.80;;;;;;4998573;28;21047;-56
2023/03/06 11:44:07;;;;;;;18.80;9.37;;;5.90;54.80;;;;;;5001366;28;20826;-56
2023/03/06 11:47:16;;;;;;;15.90;8.50;;;6.50;53.40;;;;;;5001681;28;20451;-58
2023/03/06 11:49:51;;;;;;;15.70;8.40;;;7.10;50.60;;;;;;4981085;28;20437;-56
2023/03/06 11:52:41;;;;;;;13.53;7.43;;;7.30;49.50;;;;;;4966174;28;20539;-56
2023/03/06 11:55:14;;;;;;;17.50;9.53;;;7.30;47.60;;;;;;4990164;28;20440;-57
2023/03/06 11:58:06;;;;;;;14.60;6.93;;;6.80;46.90;;;;;;5007033;28;20833;-57
2023/03/06 12:00:37;;;;;;;13.20;7.30;;;6.50;46.60;;;;;;4997284;28;20505;-57
2023/03/06 12:03:34;;;;;;;7.30;5.40;;;6.30;46.70;;;;;;5001079;28;20418;-59
2023/03/06 12:06:22;;;;;;;8.33;5.50;;;6.20;46.10;;;;;;4997439;28;21017;-59
2023/03/06 12:09:12;;;;;;;8.77;6.10;;;5.90;45.10;;;;;;5000067;28;21387;-58
2023/03/06 12:11:44;;;;;;;9.10;5.93;;;5.50;45.90;;;;;;4995469;28;20429;-59
2023/03/06 12:14:44;;;;;;;11.37;5.83;;;5.20;46.00;;;;;;5002518;28;20443;-59
2023/03/06 12:17:15;;;;;;;10.60;5.87;;;4.90;46.80;;;;;;5001206;28;20451;-59
2023/03/06 12:20:06;;;;;;;11.30;6.43;;;4.80;47.40;;;;;;5002113;28;20515;-60
2023/03/06 12:22:51;;;;;;;9.30;6.00;;;4.90;48.50;;;;;;5006181;28;20436;-60
2023/03/06 12:25:25;;;;;;;14.70;6.60;;;4.90;48.90;;;;;;5001422;28;20432;-61
2023/03/06 12:27:54;;;;;;;12.17;6.57;;;5.00;48.80;;;;;;5005460;28;20465;-58
2023/03/06 12:30:47;;;;;;;14.70;7.77;;;5.00;49.00;;;;;;5000269;28;20487;-58
2023/03/06 12:33:39;;;;;;;10.07;6.10;;;4.90;49.00;;;;;;5008183;28;20431;-58
2023/03/06 12:36:26;;;;;;;11.60;6.60;;;4.90;49.60;;;;;;4994494;28;20474;-58
2023/03/06 12:38:58;;;;;;;11.80;6.70;;;4.90;50.00;;;;;;4998091;28;20446;-58
2023/03/06 12:41:41;;;;;;;11.30;7.27;;;4.80;48.50;;;;;;5004475;28;21145;-58
2023/03/06 12:44:25;;;;;;;10.60;6.67;;;4.80;48.70;;;;;;4999577;28;20434;-58
2023/03/06 12:47:00;;;;;;;9.73;6.70;;;4.70;47.90;;;;;;5001518;28;20554;-57
2023/03/06 12:49:28;;;;;;;13.20;6.80;;;4.70;48.70;;;;;;5003757;28;20468;-58
2023/03/06 12:51:55;;;;;;;10.90;6.47;;;4.70;49.20;;;;;;4997275;28;20518;-57
2023/03/06 12:54:34;;;;;;;9.40;6.10;;;4.60;48.40;;;;;;5003714;28;20463;-58